Time;durP1;ratioP1;P1;durP2;ratioP2;P2;SDS_P1;SDS_P2;PMS_P1;PMS_P2;Temp;Humidity;BMP_temperature;BMP_pressure;BME280_temperature;BME280_humidity;BME280_pressure;Samples;Min_cycle;Max_cycle;Signal;HPM_P1;HPM_P2
2021/12/15 00:02:22;;;;;;;4.10;3.60;;;;;;;;;;5019457;28;20215;-82
2021/12/15 00:04:53;;;;;;;3.00;2.70;;;;;;;;;;5019600;28;20250;-82
2021/12/15 00:07:26;;;;;;;4.30;4.00;;;;;;;;;;5019430;28;20203;-83
2021/12/15 00:09:55;;;;;;;3.30;3.10;;;;;;;;;;5018430;28;20211;-83
2021/12/15 00:12:23;;;;;;;3.80;3.50;;;;;;;;;;5018541;28;20211;-82
2021/12/15 00:14:51;;;;;;;3.60;3.30;;;;;;;;;;5018709;28;20219;-81
2021/12/15 00:17:19;;;;;;;3.97;3.67;;;;;;;;;;5019198;28;20230;-82
2021/12/15 00:19:48;;;;;;;4.50;4.10;;;;;;;;;;5018122;28;20246;-82
2021/12/15 00:22:17;;;;;;;5.22;4.72;;;;;;;;;;5018984;28;20642;-82
2021/12/15 00:24:47;;;;;;;3.95;3.65;;;;;;;;;;4999543;28;20250;-81
2021/12/15 00:27:15;;;;;;;3.70;3.40;;;;;;;;;;4998984;28;20215;-82
2021/12/15 00:29:42;;;;;;;4.90;4.40;;;;;;;;;;4999257;28;20647;-81
2021/12/15 00:32:10;;;;;;;5.50;4.88;;;;;;;;;;4998480;28;20662;-83
2021/12/15 00:34:41;;;;;;;5.07;4.57;;;;;;;;;;5016512;28;20267;-83
2021/12/15 00:37:09;;;;;;;5.10;4.65;;;;;;;;;;5008973;28;20226;-82
2021/12/15 00:39:37;;;;;;;4.40;4.00;;;;;;;;;;4997955;28;20203;-82
2021/12/15 00:42:07;;;;;;;4.88;4.47;;;;;;;;;;4997937;28;20246;-82
2021/12/15 00:44:34;;;;;;;6.07;5.07;;;;;;;;;;4999001;28;20248;-83
2021/12/15 00:47:03;;;;;;;5.70;5.20;;;;;;;;;;5017707;28;20290;-82
2021/12/15 00:49:31;;;;;;;6.22;5.63;;;;;;;;;;5017633;28;20703;-82
2021/12/15 00:51:59;;;;;;;6.57;5.97;;;;;;;;;;5016733;28;20599;-81
2021/12/15 00:54:26;;;;;;;4.53;4.15;;;;;;;;;;5015744;28;20223;-83
2021/12/15 00:56:56;;;;;;;6.60;6.00;;;;;;;;;;5016914;28;20242;-82
2021/12/15 00:59:25;;;;;;;5.88;5.28;;;;;;;;;;5016752;28;20254;-83
2021/12/15 01:01:56;;;;;;;5.43;4.93;;;;;;;;;;5015787;28;20230;-81
2021/12/15 01:04:25;;;;;;;4.80;4.40;;;;;;;;;;5001019;28;20246;-83
2021/12/15 01:06:57;;;;;;;5.05;4.57;;;;;;;;;;4996413;28;20199;-80
2021/12/15 01:09:30;;;;;;;5.55;4.97;;;;;;;;;;4997681;28;20682;-82
2021/12/15 01:12:15;;;;;;;4.68;4.28;;;;;;;;;;4997978;28;20199;-82
2021/12/15 01:20:32;;;;;;;4.00;3.70;;;;;;;;;;4995579;28;20227;-83
2021/12/15 01:23:04;;;;;;;3.97;3.67;;;;;;;;;;4996280;28;20279;-81
2021/12/15 01:25:36;;;;;;;6.03;4.45;;;;;;;;;;4995511;28;20259;-81
2021/12/15 01:28:05;;;;;;;3.83;3.53;;;;;;;;;;4995651;28;20223;-81
2021/12/15 01:30:37;;;;;;;4.85;4.35;;;;;;;;;;4995162;28;20216;-81
2021/12/15 01:33:06;;;;;;;4.18;3.88;;;;;;;;;;5025906;23;20317;-84
2021/12/15 01:35:37;;;;;;;3.97;3.67;;;;;;;;;;4999461;28;20257;-83
2021/12/15 01:38:05;;;;;;;3.47;3.22;;;;;;;;;;5014114;28;20245;-83
2021/12/15 01:40:37;;;;;;;4.95;4.57;;;;;;;;;;5014540;28;20346;-84
2021/12/15 01:43:16;;;;;;;5.43;4.93;;;;;;;;;;5013427;28;20319;-83
2021/12/15 01:48:33;;;;;;;6.13;5.60;;;;;;;;;;4975427;28;20725;-84
2021/12/15 01:51:02;;;;;;;5.88;5.38;;;;;;;;;;4975344;28;20224;-83
2021/12/15 01:53:30;;;;;;;5.93;5.32;;;;;;;;;;4975600;28;20231;-84
2021/12/15 01:55:58;;;;;;;5.72;5.22;;;;;;;;;;4975134;28;20227;-84
2021/12/15 01:58:26;;;;;;;4.90;4.40;;;;;;;;;;4975016;28;20292;-84
2021/12/15 02:01:01;;;;;;;5.25;4.75;;;;;;;;;;4973869;28;20299;-84
2021/12/15 02:03:29;;;;;;;5.53;5.00;;;;;;;;;;4985425;28;20336;-83
2021/12/15 02:05:58;;;;;;;5.45;4.95;;;;;;;;;;4994158;28;20227;-83
2021/12/15 02:08:26;;;;;;;5.95;5.38;;;;;;;;;;4994297;28;20231;-83
2021/12/15 02:10:54;;;;;;;4.18;3.88;;;;;;;;;;4993728;28;20222;-83
2021/12/15 02:13:22;;;;;;;5.20;4.70;;;;;;;;;;4993860;28;20258;-83
2021/12/15 02:15:55;;;;;;;4.18;3.88;;;;;;;;;;4993890;28;20216;-83
2021/12/15 02:18:29;;;;;;;3.92;3.35;;;;;;;;;;4993605;28;20254;-84
2021/12/15 02:21:03;;;;;;;5.13;4.65;;;;;;;;;;4993322;28;20294;-83
2021/12/15 02:23:38;;;;;;;3.58;3.28;;;;;;;;;;4994065;28;20263;-83
2021/12/15 02:26:11;;;;;;;5.03;4.53;;;;;;;;;;4993662;28;20191;-84
2021/12/15 02:28:40;;;;;;;4.97;4.57;;;;;;;;;;4993589;28;20192;-84
2021/12/15 02:31:14;;;;;;;4.30;3.90;;;;;;;;;;4994091;28;20219;-84
2021/12/15 02:33:56;;;;;;;5.05;4.55;;;;;;;;;;4997287;28;20752;-83
2021/12/15 02:39:11;;;;;;;4.35;3.95;;;;;;;;;;4997381;28;20190;-83
2021/12/15 02:41:40;;;;;;;5.93;5.43;;;;;;;;;;4986548;28;20670;-84
2021/12/15 02:44:12;;;;;;;7.38;6.18;;;;;;;;;;4977919;28;20255;-84
2021/12/15 02:46:43;;;;;;;6.82;6.15;;;;;;;;;;4980256;28;20666;-83
2021/12/15 02:49:14;;;;;;;7.25;6.53;;;;;;;;;;4999015;28;20206;-83
2021/12/15 02:51:46;;;;;;;7.40;6.55;;;;;;;;;;5000541;28;20222;-84
2021/12/15 02:54:15;;;;;;;6.68;6.00;;;;;;;;;;5000701;28;20227;-84
2021/12/15 02:56:45;;;;;;;6.60;6.00;;;;;;;;;;5000188;28;20287;-84
2021/12/15 02:59:15;;;;;;;6.78;5.72;;;;;;;;;;5000465;28;20215;-84
2021/12/15 03:01:59;;;;;;;6.43;5.82;;;;;;;;;;5000083;28;20211;-84
2021/12/15 03:04:38;;;;;;;5.15;4.65;;;;;;;;;;4999961;28;20274;-84
2021/12/15 03:07:15;;;;;;;4.90;4.40;;;;;;;;;;4998310;28;20188;-83
2021/12/15 03:18:05;;;;;;;4.78;4.38;;;;;;;;;;4987173;28;20262;-84
2021/12/15 03:20:39;;;;;;;6.25;5.65;;;;;;;;;;4999289;28;20250;-84
2021/12/15 03:23:12;;;;;;;3.75;3.40;;;;;;;;;;4999233;28;20251;-83
2021/12/15 03:25:40;;;;;;;5.40;4.60;;;;;;;;;;4998967;28;20660;-83
2021/12/15 03:33:56;;;;;;;5.13;4.63;;;;;;;;;;4997447;28;20243;-83
2021/12/15 03:36:38;;;;;;;4.10;3.70;;;;;;;;;;4999013;28;20637;-84
2021/12/15 03:39:10;;;;;;;7.53;6.15;;;;;;;;;;4998445;28;20192;-83
2021/12/15 03:41:38;;;;;;;4.97;4.50;;;;;;;;;;4998685;28;20243;-83
2021/12/15 03:44:08;;;;;;;5.45;4.95;;;;;;;;;;4998004;28;20243;-83
2021/12/15 03:46:35;;;;;;;9.15;7.80;;;;;;;;;;4995417;28;20226;-83
2021/12/15 03:49:03;;;;;;;5.68;4.97;;;;;;;;;;4998257;28;20254;-83
2021/12/15 03:51:31;;;;;;;4.75;4.25;;;;;;;;;;4998861;28;20268;-83
2021/12/15 03:53:59;;;;;;;6.20;5.47;;;;;;;;;;4998557;28;20231;-83
2021/12/15 03:56:28;;;;;;;6.82;6.22;;;;;;;;;;4998755;28;20272;-83
2021/12/15 03:58:57;;;;;;;6.28;5.68;;;;;;;;;;4998446;28;20203;-84
2021/12/15 04:01:25;;;;;;;7.88;7.10;;;;;;;;;;4998250;28;20653;-84
2021/12/15 04:03:56;;;;;;;7.65;6.32;;;;;;;;;;4998258;28;20243;-84
2021/12/15 04:06:28;;;;;;;9.13;8.23;;;;;;;;;;4998758;28;20278;-83
2021/12/15 04:08:57;;;;;;;6.80;6.10;;;;;;;;;;4994688;28;20623;-83
2021/12/15 04:11:33;;;;;;;6.75;6.03;;;;;;;;;;4979473;28;20216;-84
2021/12/15 04:14:02;;;;;;;8.02;7.13;;;;;;;;;;4978873;28;20216;-83
2021/12/15 04:16:46;;;;;;;6.18;5.57;;;;;;;;;;4978952;28;20236;-84
2021/12/15 04:19:20;;;;;;;5.30;4.78;;;;;;;;;;4978699;28;20208;-84
2021/12/15 04:21:49;;;;;;;7.35;6.65;;;;;;;;;;4978913;28;20204;-84
2021/12/15 04:24:19;;;;;;;5.68;5.05;;;;;;;;;;4978672;28;20201;-84
2021/12/15 04:26:50;;;;;;;5.47;4.72;;;;;;;;;;4979014;28;20228;-84
2021/12/15 04:29:18;;;;;;;5.75;5.25;;;;;;;;;;4984506;28;20192;-84
2021/12/15 04:31:58;;;;;;;6.07;5.47;;;;;;;;;;4998153;28;20188;-84
2021/12/15 04:34:26;;;;;;;4.65;4.25;;;;;;;;;;4998282;28;20191;-83
2021/12/15 04:36:54;;;;;;;3.97;3.60;;;;;;;;;;4997081;28;20583;-83
2021/12/15 04:39:26;;;;;;;4.53;4.13;;;;;;;;;;5006455;28;20658;-84
2021/12/15 04:41:57;;;;;;;4.57;4.18;;;;;;;;;;5004843;28;20714;-84
2021/12/15 04:44:27;;;;;;;5.28;4.55;;;;;;;;;;5017437;28;20201;-84
2021/12/15 04:47:03;;;;;;;3.67;3.38;;;;;;;;;;5017012;28;20223;-83
2021/12/15 04:49:34;;;;;;;5.18;4.68;;;;;;;;;;5000273;28;20194;-84
2021/12/15 04:52:02;;;;;;;7.15;6.47;;;;;;;;;;4997083;28;20231;-84
2021/12/15 04:54:31;;;;;;;8.00;6.85;;;;;;;;;;4997482;28;20630;-83
2021/12/15 04:57:01;;;;;;;9.85;8.60;;;;;;;;;;4996955;28;20208;-83
2021/12/15 04:59:29;;;;;;;8.48;7.60;;;;;;;;;;4997436;28;20191;-84
2021/12/15 05:01:58;;;;;;;8.02;7.03;;;;;;;;;;4997066;28;20215;-84
2021/12/15 05:04:26;;;;;;;10.98;8.52;;;;;;;;;;4996849;28;20215;-83
2021/12/15 05:06:54;;;;;;;7.70;6.97;;;;;;;;;;4997183;28;20227;-84
2021/12/15 05:09:22;;;;;;;5.35;4.85;;;;;;;;;;4988745;28;20894;-84
2021/12/15 05:11:50;;;;;;;5.85;5.35;;;;;;;;;;4976950;28;20629;-84
2021/12/15 05:14:20;;;;;;;9.68;8.68;;;;;;;;;;4977606;28;20710;-84
2021/12/15 05:16:48;;;;;;;5.82;5.32;;;;;;;;;;4977426;28;20223;-84
2021/12/15 05:19:16;;;;;;;5.55;5.05;;;;;;;;;;4977312;28;20617;-84
2021/12/15 05:21:44;;;;;;;7.90;7.07;;;;;;;;;;4994153;28;20713;-83
2021/12/15 05:24:22;;;;;;;6.50;5.65;;;;;;;;;;4996925;28;20216;-83
2021/12/15 05:26:50;;;;;;;5.72;5.18;;;;;;;;;;4996770;28;20250;-83
2021/12/15 05:29:19;;;;;;;5.13;4.63;;;;;;;;;;4989529;28;20219;-83
2021/12/15 05:31:47;;;;;;;6.63;5.95;;;;;;;;;;4977499;28;20185;-82
2021/12/15 05:34:15;;;;;;;4.80;4.40;;;;;;;;;;4977402;28;20275;-82
2021/12/15 05:36:44;;;;;;;4.93;4.43;;;;;;;;;;4977196;28;20240;-82
2021/12/15 05:39:11;;;;;;;5.35;4.85;;;;;;;;;;4976400;28;20251;-83
2021/12/15 05:41:39;;;;;;;4.20;3.80;;;;;;;;;;4977674;28;20694;-82
2021/12/15 05:44:07;;;;;;;4.20;3.90;;;;;;;;;;4976940;28;20228;-82
2021/12/15 05:46:37;;;;;;;8.02;7.25;;;;;;;;;;4977384;28;20220;-83
2021/12/15 05:49:06;;;;;;;5.80;5.20;;;;;;;;;;4993410;28;20227;-83
2021/12/15 05:51:34;;;;;;;6.20;5.53;;;;;;;;;;4981085;28;20189;-83
2021/12/15 05:54:02;;;;;;;5.15;4.65;;;;;;;;;;4976826;28;20220;-83
2021/12/15 05:56:29;;;;;;;11.43;7.10;;;;;;;;;;4976796;28;20216;-83
2021/12/15 05:58:57;;;;;;;6.70;5.70;;;;;;;;;;4976879;28;20248;-82
2021/12/15 06:01:26;;;;;;;9.30;6.32;;;;;;;;;;4976729;28;20248;-83
2021/12/15 06:03:55;;;;;;;5.93;5.38;;;;;;;;;;4976899;28;20278;-83
2021/12/15 06:06:23;;;;;;;5.45;4.95;;;;;;;;;;4976489;28;20671;-83
2021/12/15 06:08:51;;;;;;;6.85;5.95;;;;;;;;;;4991804;28;20862;-83
2021/12/15 06:11:19;;;;;;;5.75;5.15;;;;;;;;;;4995852;28;20227;-83
2021/12/15 06:13:48;;;;;;;5.80;5.10;;;;;;;;;;4995651;28;20247;-83
2021/12/15 06:16:17;;;;;;;4.25;3.95;;;;;;;;;;4996010;28;20192;-83
2021/12/15 06:18:45;;;;;;;4.25;3.85;;;;;;;;;;4981244;28;20193;-83
2021/12/15 06:21:14;;;;;;;5.35;4.85;;;;;;;;;;4976240;28;20204;-82
2021/12/15 06:23:42;;;;;;;4.57;4.15;;;;;;;;;;4976315;28;20262;-83
2021/12/15 06:26:10;;;;;;;4.90;4.50;;;;;;;;;;4976366;28;20254;-83
2021/12/15 06:28:40;;;;;;;5.47;4.80;;;;;;;;;;4990630;28;20216;-84
2021/12/15 06:31:11;;;;;;;4.65;4.20;;;;;;;;;;4996272;28;20262;-84
2021/12/15 06:33:42;;;;;;;5.95;5.25;;;;;;;;;;4995749;28;20270;-84
2021/12/15 06:36:13;;;;;;;5.70;5.15;;;;;;;;;;4995161;28;20227;-83
2021/12/15 06:38:46;;;;;;;4.90;4.40;;;;;;;;;;4995806;28;20247;-83
2021/12/15 06:41:14;;;;;;;4.95;4.55;;;;;;;;;;4995395;28;20642;-83
2021/12/15 06:43:45;;;;;;;3.63;3.33;;;;;;;;;;4993980;28;20278;-83
2021/12/15 06:46:36;;;;;;;3.50;3.20;;;;;;;;;;4976624;28;20203;-83
2021/12/15 07:00:16;;;;;;;3.67;3.38;;;;;;;;;;4974305;28;20580;-84
2021/12/15 07:02:44;;;;;;;3.13;2.83;;;;;;;;;;4975766;28;20636;-84
2021/12/15 07:05:14;;;;;;;3.00;2.80;;;;;;;;;;4975568;28;20216;-83
2021/12/15 07:07:45;;;;;;;2.03;1.92;;;;;;;;;;4980125;28;20291;-82
2021/12/15 07:10:17;;;;;;;2.35;2.15;;;;;;;;;;4983251;28;20255;-84
2021/12/15 07:12:44;;;;;;;2.55;2.35;;;;;;;;;;4983345;28;20250;-82
2021/12/15 07:15:13;;;;;;;1.90;1.80;;;;;;;;;;4984172;28;20224;-83
2021/12/15 07:17:44;;;;;;;2.03;1.92;;;;;;;;;;4976267;28;20239;-82
2021/12/15 07:20:34;;;;;;;1.70;1.60;;;;;;;;;;4978612;28;20243;-82
2021/12/15 07:23:03;;;;;;;2.00;1.80;;;;;;;;;;4981408;28;20658;-81
2021/12/15 07:25:34;;;;;;;2.00;1.90;;;;;;;;;;4978389;28;20228;-82
2021/12/15 07:28:01;;;;;;;2.28;2.13;;;;;;;;;;4985131;28;20220;-83
2021/12/15 07:30:31;;;;;;;3.00;2.78;;;;;;;;;;4995129;28;20271;-82
2021/12/15 07:32:59;;;;;;;3.13;2.83;;;;;;;;;;4994292;28;20220;-83
2021/12/15 07:35:28;;;;;;;3.17;2.53;;;;;;;;;;4979483;28;20255;-84
2021/12/15 07:37:56;;;;;;;2.70;2.50;;;;;;;;;;4980472;28;20662;-84
2021/12/15 07:40:25;;;;;;;3.80;3.50;;;;;;;;;;4994462;28;20224;-83
2021/12/15 07:43:05;;;;;;;3.38;3.08;;;;;;;;;;4978982;28;20255;-83
2021/12/15 07:45:37;;;;;;;3.20;2.95;;;;;;;;;;4979595;28;20223;-83
2021/12/15 07:48:06;;;;;;;3.70;3.40;;;;;;;;;;4996593;28;20717;-84
2021/12/15 07:50:36;;;;;;;3.22;2.92;;;;;;;;;;4999239;28;20447;-83
2021/12/15 07:53:05;;;;;;;4.30;3.90;;;;;;;;;;4996502;28;20239;-84
2021/12/15 07:55:33;;;;;;;3.55;3.25;;;;;;;;;;4979791;28;20220;-84
2021/12/15 07:58:03;;;;;;;3.85;3.50;;;;;;;;;;4979704;28;20224;-84
2021/12/15 08:00:31;;;;;;;3.10;2.80;;;;;;;;;;4994186;28;20346;-84
2021/12/15 08:02:59;;;;;;;3.00;2.80;;;;;;;;;;4999490;28;20275;-83
2021/12/15 08:05:28;;;;;;;2.92;2.67;;;;;;;;;;4998723;28;20180;-84
2021/12/15 08:07:56;;;;;;;2.47;2.28;;;;;;;;;;4999279;28;20235;-84
2021/12/15 08:10:24;;;;;;;2.40;2.20;;;;;;;;;;4998786;28;20201;-83
2021/12/15 08:12:52;;;;;;;2.72;2.53;;;;;;;;;;4998515;28;20293;-84
2021/12/15 08:15:22;;;;;;;3.47;3.17;;;;;;;;;;4999104;28;20279;-84
2021/12/15 08:17:52;;;;;;;3.30;3.08;;;;;;;;;;4998443;28;20184;-84
2021/12/15 08:20:23;;;;;;;3.08;2.88;;;;;;;;;;4998839;28;20230;-84
2021/12/15 08:22:51;;;;;;;4.47;4.15;;;;;;;;;;4998612;28;20670;-84
2021/12/15 08:25:20;;;;;;;3.95;3.65;;;;;;;;;;4998367;28;20652;-83
2021/12/15 08:27:49;;;;;;;4.70;4.30;;;;;;;;;;4998693;28;20207;-85
2021/12/15 08:30:21;;;;;;;3.88;3.47;;;;;;;;;;4998461;28;20235;-84
2021/12/15 08:32:49;;;;;;;4.25;3.85;;;;;;;;;;4998613;28;20297;-84
2021/12/15 08:35:19;;;;;;;4.85;4.40;;;;;;;;;;4998490;28;20246;-84
2021/12/15 08:37:48;;;;;;;4.47;4.10;;;;;;;;;;4998581;28;20216;-83
2021/12/15 08:40:17;;;;;;;3.95;3.53;;;;;;;;;;4998694;28;20219;-83
2021/12/15 08:42:45;;;;;;;4.68;4.28;;;;;;;;;;4998241;28;20259;-83
2021/12/15 08:45:13;;;;;;;3.83;3.53;;;;;;;;;;4998157;28;20239;-84
2021/12/15 08:47:42;;;;;;;4.60;4.20;;;;;;;;;;4998614;28;20214;-84
2021/12/15 08:50:14;;;;;;;4.20;3.83;;;;;;;;;;4998282;28;20239;-83
2021/12/15 08:52:42;;;;;;;4.88;4.15;;;;;;;;;;4998297;28;20243;-84
2021/12/15 08:55:10;;;;;;;3.75;3.40;;;;;;;;;;4998174;28;20191;-83
2021/12/15 08:57:46;;;;;;;3.85;3.50;;;;;;;;;;4998121;28;20180;-82
2021/12/15 09:00:16;;;;;;;3.80;3.50;;;;;;;;;;4997462;28;20190;-83
2021/12/15 09:02:46;;;;;;;3.28;2.97;;;;;;;;;;4997590;28;20235;-83
2021/12/15 09:05:20;;;;;;;3.10;2.90;;;;;;;;;;4996990;28;20223;-83
2021/12/15 09:07:49;;;;;;;4.95;4.30;;;;;;;;;;4996778;28;20575;-83
2021/12/15 09:10:18;;;;;;;3.97;3.63;;;;;;;;;;4997798;28;20207;-83
2021/12/15 09:12:46;;;;;;;4.50;4.20;;;;;;;;;;4997641;28;20258;-83
2021/12/15 09:15:14;;;;;;;3.50;3.20;;;;;;;;;;4997128;28;20223;-83
2021/12/15 09:17:43;;;;;;;3.00;2.80;;;;;;;;;;4997449;28;20239;-83
2021/12/15 09:20:15;;;;;;;4.05;3.65;;;;;;;;;;4997651;28;20629;-83
2021/12/15 09:22:43;;;;;;;4.25;3.72;;;;;;;;;;4997047;28;20216;-82
2021/12/15 09:25:13;;;;;;;3.33;3.08;;;;;;;;;;4997296;28;20304;-82
2021/12/15 09:27:43;;;;;;;3.03;2.78;;;;;;;;;;4985141;28;20240;-83
2021/12/15 09:30:14;;;;;;;2.75;2.50;;;;;;;;;;4977785;28;20575;-81
2021/12/15 09:32:43;;;;;;;2.60;2.40;;;;;;;;;;4996580;28;20271;-82
2021/12/15 09:35:13;;;;;;;3.22;2.92;;;;;;;;;;4981769;28;20239;-81
2021/12/15 09:37:41;;;;;;;3.20;2.83;;;;;;;;;;4977122;28;20251;-83
2021/12/15 09:40:15;;;;;;;3.55;3.28;;;;;;;;;;4981440;28;20247;-82
2021/12/15 09:42:42;;;;;;;3.55;3.25;;;;;;;;;;4994757;28;20559;-82
2021/12/15 09:45:28;;;;;;;3.20;2.90;;;;;;;;;;4994947;28;20254;-82
2021/12/15 09:56:19;;;;;;;2.70;2.50;;;;;;;;;;4994465;28;20765;-82
2021/12/15 09:57:03;;;;;;;3.53;2.65;;;;;;;;;;4978711;28;20243;-82
2021/12/15 10:02:30;;;;;;;4.85;3.30;;;;;;;;;;4977105;28;20227;-83
2021/12/15 10:05:10;;;;;;;3.05;2.72;;;;;;;;;;4996349;28;20215;-83
2021/12/15 10:19:18;;;;;;;2.70;2.50;;;;;;;;;;4985392;28;20330;-83
2021/12/15 10:22:03;;;;;;;3.17;2.88;;;;;;;;;;4992244;28;20258;-83
2021/12/15 10:24:34;;;;;;;3.03;2.75;;;;;;;;;;4995845;28;20223;-83
2021/12/15 10:27:07;;;;;;;2.80;2.60;;;;;;;;;;5000318;28;20199;-84
2021/12/15 10:29:34;;;;;;;3.33;2.85;;;;;;;;;;5016102;28;20231;-86
2021/12/15 10:32:06;;;;;;;2.67;2.47;;;;;;;;;;5016538;28;20226;-84
2021/12/15 10:34:34;;;;;;;2.50;2.30;;;;;;;;;;5014466;28;20484;-84
2021/12/15 10:37:05;;;;;;;3.67;3.15;;;;;;;;;;5014759;28;20624;-84
2021/12/15 10:39:32;;;;;;;3.08;2.78;;;;;;;;;;5015074;28;20237;-84
2021/12/15 10:42:00;;;;;;;2.42;2.25;;;;;;;;;;5015424;28;20230;-83
2021/12/15 10:44:28;;;;;;;2.30;2.20;;;;;;;;;;5014178;28;20242;-84
2021/12/15 10:46:59;;;;;;;2.38;2.17;;;;;;;;;;4993785;28;20195;-84
2021/12/15 10:49:30;;;;;;;2.47;2.28;;;;;;;;;;4975398;28;20232;-83
2021/12/15 10:52:01;;;;;;;2.85;2.65;;;;;;;;;;4976103;28;20231;-84
2021/12/15 10:54:36;;;;;;;2.47;2.28;;;;;;;;;;4983257;28;20662;-85
2021/12/15 10:57:08;;;;;;;2.17;1.98;;;;;;;;;;4993026;28;20600;-84
2021/12/15 10:59:40;;;;;;;2.08;1.92;;;;;;;;;;4981806;28;20235;-86
2021/12/15 11:02:10;;;;;;;2.85;2.65;;;;;;;;;;4979266;28;20224;-85
2021/12/15 11:04:48;;;;;;;1.85;1.75;;;;;;;;;;4977399;28;20898;-85
2021/12/15 11:07:26;;;;;;;2.13;1.92;;;;;;;;;;4978383;28;20685;-84
2021/12/15 11:10:01;;;;;;;2.53;2.33;;;;;;;;;;4979621;28;20210;-85
2021/12/15 11:12:33;;;;;;;3.03;2.83;;;;;;;;;;4979200;28;20242;-84
2021/12/15 11:15:05;;;;;;;2.63;2.42;;;;;;;;;;4979223;28;20627;-84
2021/12/15 11:17:36;;;;;;;2.85;2.65;;;;;;;;;;4979198;28;20224;-84
2021/12/15 11:20:13;;;;;;;2.75;2.55;;;;;;;;;;4978630;28;20236;-84
2021/12/15 11:22:55;;;;;;;2.85;2.55;;;;;;;;;;4979075;28;20256;-84
2021/12/15 11:25:39;;;;;;;2.40;2.28;;;;;;;;;;4979198;28;20286;-85
2021/12/15 11:28:13;;;;;;;2.88;2.60;;;;;;;;;;4979520;28;20223;-85
2021/12/15 11:30:45;;;;;;;3.50;3.20;;;;;;;;;;4979158;28;20651;-84
2021/12/15 11:33:17;;;;;;;2.67;2.47;;;;;;;;;;4979213;28;20272;-86
2021/12/15 11:35:48;;;;;;;2.97;2.72;;;;;;;;;;4979600;28;20553;-85
2021/12/15 11:38:21;;;;;;;2.78;2.58;;;;;;;;;;4978452;28;20262;-84
2021/12/15 11:41:05;;;;;;;2.95;2.75;;;;;;;;;;4978675;28;20240;-84
2021/12/15 11:43:42;;;;;;;2.78;2.58;;;;;;;;;;4978905;28;20264;-85
2021/12/15 11:46:32;;;;;;;3.33;3.03;;;;;;;;;;4978877;28;20327;-85
2021/12/15 11:49:03;;;;;;;2.83;2.63;;;;;;;;;;4978631;28;20646;-85
2021/12/15 11:51:44;;;;;;;2.13;2.00;;;;;;;;;;4978644;28;20240;-85
2021/12/15 11:54:20;;;;;;;2.67;2.17;;;;;;;;;;4978961;28;20252;-85
2021/12/15 11:56:51;;;;;;;2.70;2.50;;;;;;;;;;4978817;28;20208;-85
2021/12/15 11:59:30;;;;;;;2.50;2.30;;;;;;;;;;4978184;28;20228;-85
2021/12/15 12:02:03;;;;;;;2.60;2.40;;;;;;;;;;4978479;28;20726;-85
2021/12/15 12:04:36;;;;;;;2.47;2.28;;;;;;;;;;4977863;28;20295;-85
2021/12/15 12:07:23;;;;;;;3.20;3.00;;;;;;;;;;4978646;28;20235;-85
2021/12/15 12:09:55;;;;;;;3.33;3.03;;;;;;;;;;4978598;28;20235;-85
2021/12/15 12:12:29;;;;;;;3.58;3.28;;;;;;;;;;4978680;28;20622;-85
2021/12/15 12:14:57;;;;;;;3.00;2.80;;;;;;;;;;4978642;28;20210;-85
2021/12/15 12:17:29;;;;;;;2.47;2.28;;;;;;;;;;4978396;28;20689;-84
2021/12/15 12:20:01;;;;;;;2.92;2.72;;;;;;;;;;4978501;28;20204;-85
2021/12/15 12:22:32;;;;;;;2.20;2.10;;;;;;;;;;4978382;28;20263;-85
2021/12/15 12:25:03;;;;;;;2.55;2.13;;;;;;;;;;4977972;28;20283;-85
2021/12/15 12:27:34;;;;;;;2.50;2.30;;;;;;;;;;4978484;28;20204;-85
2021/12/15 12:30:06;;;;;;;2.22;2.10;;;;;;;;;;4977955;28;20235;-85
2021/12/15 12:32:34;;;;;;;2.00;1.90;;;;;;;;;;4978127;28;20612;-85
2021/12/15 12:35:03;;;;;;;2.60;2.40;;;;;;;;;;4977473;28;20608;-85
2021/12/15 12:37:30;;;;;;;2.97;2.67;;;;;;;;;;4996052;28;20204;-85
2021/12/15 12:40:04;;;;;;;2.60;2.40;;;;;;;;;;4997275;28;20239;-85
2021/12/15 12:42:37;;;;;;;2.47;2.28;;;;;;;;;;4996811;28;20263;-85
2021/12/15 12:45:22;;;;;;;2.88;2.67;;;;;;;;;;4997354;28;20223;-85
2021/12/15 12:48:07;;;;;;;2.55;2.38;;;;;;;;;;4977818;28;20308;-85
2021/12/15 12:59:41;;;;;;;2.38;2.17;;;;;;;;;;4977452;28;20211;-84
2021/12/15 13:02:45;;;;;;;2.90;2.70;;;;;;;;;;4976843;28;20200;-85
2021/12/15 13:05:34;;;;;;;2.45;2.25;;;;;;;;;;4977023;28;20573;-84
2021/12/15 13:08:04;;;;;;;2.58;2.38;;;;;;;;;;4977338;28;20206;-84
2021/12/15 13:11:15;;;;;;;2.67;2.47;;;;;;;;;;4977399;28;20581;-84
2021/12/15 13:13:56;;;;;;;2.95;2.67;;;;;;;;;;4917093;29;20233;-84
2021/12/15 13:16:36;;;;;;;2.80;2.60;;;;;;;;;;4917152;29;20225;-84
2021/12/15 13:19:13;;;;;;;3.17;2.83;;;;;;;;;;4957861;28;20216;-84
2021/12/15 13:21:49;;;;;;;3.13;2.85;;;;;;;;;;4976905;28;20204;-84
2021/12/15 13:30:47;;;;;;;2.50;2.30;;;;;;;;;;4976847;28;20207;-84
2021/12/15 13:33:23;;;;;;;2.72;2.53;;;;;;;;;;4976209;28;20259;-84
2021/12/15 13:35:53;;;;;;;1.50;1.40;;;;;;;;;;4976789;28;20227;-84
2021/12/15 13:38:24;;;;;;;2.20;2.00;;;;;;;;;;4976714;28;20208;-84
2021/12/15 13:41:25;;;;;;;1.90;1.80;;;;;;;;;;4975396;28;20211;-83
2021/12/15 13:44:06;;;;;;;1.88;1.77;;;;;;;;;;4962128;28;20228;-83
2021/12/15 13:46:42;;;;;;;1.80;1.70;;;;;;;;;;4976283;28;20729;-84
2021/12/15 13:49:24;;;;;;;2.00;1.88;;;;;;;;;;4976471;28;20208;-83
2021/12/15 13:52:20;;;;;;;1.83;1.73;;;;;;;;;;4976042;28;20243;-83
2021/12/15 13:55:21;;;;;;;2.35;1.40;;;;;;;;;;4975863;28;20668;-84
2021/12/15 13:58:16;;;;;;;1.60;1.50;;;;;;;;;;4976872;28;20215;-83
2021/12/15 14:00:50;;;;;;;1.50;1.40;;;;;;;;;;4976443;28;20197;-84
2021/12/15 14:03:26;;;;;;;1.42;1.33;;;;;;;;;;4977817;28;20599;-84
2021/12/15 14:06:00;;;;;;;1.67;1.58;;;;;;;;;;4977599;28;20224;-84
2021/12/15 14:08:39;;;;;;;1.08;1.08;;;;;;;;;;4976267;28;20208;-84
2021/12/15 14:11:18;;;;;;;1.50;1.40;;;;;;;;;;4977828;28;20211;-84
2021/12/15 14:14:00;;;;;;;1.67;1.58;;;;;;;;;;4977810;28;20314;-84
2021/12/15 14:16:50;;;;;;;2.10;1.90;;;;;;;;;;4978158;28;20198;-84
2021/12/15 14:19:29;;;;;;;1.60;1.50;;;;;;;;;;4977730;28;20211;-84
2021/12/15 14:22:06;;;;;;;1.50;1.40;;;;;;;;;;4977012;28;20211;-84
2021/12/15 14:24:35;;;;;;;1.27;1.20;;;;;;;;;;4977288;28;20200;-84
2021/12/15 14:27:02;;;;;;;1.60;1.50;;;;;;;;;;4977423;28;20224;-84
2021/12/15 14:29:31;;;;;;;1.40;1.30;;;;;;;;;;4981128;28;20581;-84
2021/12/15 14:32:02;;;;;;;1.45;1.35;;;;;;;;;;4980599;28;20215;-84
2021/12/15 14:34:32;;;;;;;1.35;1.25;;;;;;;;;;4981864;28;20235;-84
2021/12/15 14:37:04;;;;;;;1.10;1.10;;;;;;;;;;4981330;28;20677;-84
2021/12/15 14:39:35;;;;;;;1.40;1.30;;;;;;;;;;4980842;28;20212;-84
2021/12/15 14:42:09;;;;;;;1.77;1.30;;;;;;;;;;4980948;28;20214;-84
2021/12/15 14:44:40;;;;;;;1.67;1.58;;;;;;;;;;4981373;28;20207;-84
2021/12/15 14:47:12;;;;;;;1.10;1.10;;;;;;;;;;4981192;28;20231;-83
2021/12/15 14:49:43;;;;;;;1.75;1.65;;;;;;;;;;4981169;28;20288;-83
2021/12/15 14:52:16;;;;;;;2.13;1.92;;;;;;;;;;4981037;28;20228;-83
2021/12/15 14:54:46;;;;;;;1.98;1.85;;;;;;;;;;4981396;28;20214;-84
2021/12/15 14:57:16;;;;;;;2.53;2.33;;;;;;;;;;4981347;28;20550;-84
2021/12/15 14:59:47;;;;;;;2.30;2.17;;;;;;;;;;4980582;28;20207;-84
2021/12/15 15:02:19;;;;;;;2.17;2.00;;;;;;;;;;4981023;28;20609;-84
2021/12/15 15:04:49;;;;;;;2.45;2.25;;;;;;;;;;4980664;28;20235;-84
2021/12/15 15:07:21;;;;;;;3.85;2.75;;;;;;;;;;4980675;28;20227;-84
2021/12/15 15:09:51;;;;;;;2.90;2.60;;;;;;;;;;4980616;28;20231;-84
2021/12/15 15:12:22;;;;;;;3.83;3.38;;;;;;;;;;4980267;28;20224;-84
2021/12/15 15:14:55;;;;;;;3.97;3.55;;;;;;;;;;4981031;28;20286;-84
2021/12/15 15:17:30;;;;;;;3.38;3.17;;;;;;;;;;4981136;28;20210;-84
2021/12/15 15:20:01;;;;;;;3.83;3.53;;;;;;;;;;4979570;28;20287;-83
2021/12/15 15:22:34;;;;;;;3.58;3.28;;;;;;;;;;4981209;28;20231;-82
2021/12/15 15:25:06;;;;;;;3.03;2.75;;;;;;;;;;4980531;28;20280;-84
2021/12/15 15:27:33;;;;;;;3.75;3.45;;;;;;;;;;4980862;28;20209;-84
2021/12/15 15:30:05;;;;;;;3.35;3.05;;;;;;;;;;4981196;28;20660;-83
2021/12/15 15:32:34;;;;;;;4.60;3.90;;;;;;;;;;4983256;28;20342;-83
2021/12/15 15:35:14;;;;;;;3.70;3.40;;;;;;;;;;4984382;28;20288;-84
2021/12/15 15:37:44;;;;;;;2.97;2.67;;;;;;;;;;4986308;28;20251;-84
2021/12/15 15:40:25;;;;;;;2.80;2.60;;;;;;;;;;4980664;28;20201;-85
2021/12/15 15:43:02;;;;;;;3.25;2.95;;;;;;;;;;4981036;28;20239;-84
2021/12/15 15:45:38;;;;;;;3.47;3.17;;;;;;;;;;4989848;28;20230;-85
2021/12/15 15:48:09;;;;;;;3.70;3.35;;;;;;;;;;4999392;28;20238;-84
2021/12/15 15:50:40;;;;;;;4.13;3.47;;;;;;;;;;4996932;28;20562;-85
2021/12/15 15:53:53;;;;;;;4.15;3.75;;;;;;;;;;4998975;28;20239;-85
2021/12/15 15:56:24;;;;;;;3.15;2.90;;;;;;;;;;4999775;28;20677;-85
2021/12/15 15:58:57;;;;;;;2.47;2.38;;;;;;;;;;4991651;28;20203;-85
2021/12/15 16:01:35;;;;;;;3.00;2.60;;;;;;;;;;4995384;28;20221;-84
2021/12/15 16:04:07;;;;;;;2.35;2.15;;;;;;;;;;4998478;28;20212;-85
2021/12/15 16:06:34;;;;;;;3.60;3.30;;;;;;;;;;4998856;28;20198;-85
2021/12/15 16:09:07;;;;;;;3.08;2.83;;;;;;;;;;4998786;28;20651;-85
2021/12/15 16:11:38;;;;;;;4.07;3.72;;;;;;;;;;4998843;28;20184;-85
2021/12/15 16:14:09;;;;;;;3.78;3.47;;;;;;;;;;4984506;28;20227;-85
2021/12/15 16:16:42;;;;;;;3.00;2.80;;;;;;;;;;4979994;28;20189;-85
2021/12/15 16:19:26;;;;;;;3.28;3.05;;;;;;;;;;4979355;28;20200;-85
2021/12/15 16:24:42;;;;;;;2.35;2.08;;;;;;;;;;4992141;28;20219;-84
2021/12/15 16:27:10;;;;;;;2.05;1.95;;;;;;;;;;4998914;28;20200;-84
2021/12/15 16:29:40;;;;;;;2.38;2.10;;;;;;;;;;4998291;28;20267;-84